Portada
METAR-TAF:

METAR-TAF

Aeropuertos :

Argel, Argelia

Aeropuerto Internacional Houari Boumedienne

latitud: 36-43N, longitud: 003-15E, altitud: 25 m

Observación

El informe se hizo hace 23 minutos, a las 00:00 UTC
Viento 4 kt del sur-sureste
Temperatura 7°C
Humedad 93%
Presión 1023 hPa
Visibilidad 10 km o más
Escasas nubes a una altura de 1600 ft

METAR: DAAG 200000Z 16004KT 9999 FEW016 07/06 Q1023

Hora: 01:23 (00:23 UTC)

Pronóstico

El informe se hizo hace 1 hora y 23 minutos, a las 23:00 UTC
Pronóstico válido del 20 a las 00 UTC al 20 a las 24 UTC
Viento 2 kt con dirección variable
Visibilidad 10 km o más
sin nubes por debajo de 1500 m y sin presencia de cumulonimbus.
Evolucionando progresivamente
del 20 a las 10 UTC al 20 a las 13 UTC
Viento 10 kt del noreste
Evolucionando progresivamente
del 20 a las 16 UTC al 20 a las 18 UTC
Viento 2 kt con dirección variable

TAF: DAAG 192300Z 2000/2024 VRB02KT CAVOK BECMG 2010/2013 04010KT BECMG 2016/2018 VRB02KT

Observaciones y pronósticos meteorológicos de más de 4000 aeropuertos (mensajes METAR y TAF).

Los puntos amarillos y rojos representan las estaciones disponibles.

Ponga el ratón en el punto deseado para ver el nombre de la estación.

Haga clic para ver las observaciones y los pronósticos meteorológicos.

Para cambiar el mapa : haga clic en los botones verdes con una cruz de color negro para hacer un zoom, en el botón verde con un guión para alejar o en las flechas verdes para mapas adyacentes.


METAR-TAF: